Terminal Aerodrome Forecast
Issued by NWS

Home | Current Version | Previous Version | Text Only | Print | Product List | Glossary On
Versions: 1 2 3 4 5 6 7 8 9 10 11 12
261
FTUS44 KLZK 140530
TAFADF
TAF
KADF 140530Z 1406/1506 08007KT P6SM SCT020 BKN040
      TEMPO 1410/1414 BKN020
     FM141400 13006KT P6SM VCSH SCT012 OVC020
     FM141600 16007KT 4SM -RA BR SCT006 OVC015
     FM142000 17009KT 5SM -DZ BR OVC006
      TEMPO 1420/1424 3SM -SHRA BR OVC004
     FM150000 20004KT 3SM -RA BR OVC004=

USA.gov is the U.S. government's official web portal to all federal, state and local government web resources and services.